sensor_id;sensor_type;location;lat;lon;timestamp;temperature;humidity
14401;DHT22;7285;50.894;5.462;2023-03-03T00:01:11;1.40;1.00
14401;DHT22;7285;50.894;5.462;2023-03-03T00:03:40;1.40;38.40
14401;DHT22;7285;50.894;5.462;2023-03-03T00:06:09;1.30;99.90
14401;DHT22;7285;50.894;5.462;2023-03-03T00:08:37;1.30;99.90
14401;DHT22;7285;50.894;5.462;2023-03-03T00:11:04;1.30;1.00
14401;DHT22;7285;50.894;5.462;2023-03-03T00:13:40;1.30;1.00
14401;DHT22;7285;50.894;5.462;2023-03-03T00:16:22;1.20;1.00
14401;DHT22;7285;50.894;5.462;2023-03-03T00:18:52;1.20;1.00
14401;DHT22;7285;50.894;5.462;2023-03-03T00:21:24;1.20;1.00
14401;DHT22;7285;50.894;5.462;2023-03-03T00:23:54;1.10;99.90
14401;DHT22;7285;50.894;5.462;2023-03-03T00:26:28;1.10;99.90
14401;DHT22;7285;50.894;5.462;2023-03-03T00:28:58;1.10;1.00
14401;DHT22;7285;50.894;5.462;2023-03-03T00:31:29;1.10;1.00
14401;DHT22;7285;50.894;5.462;2023-03-03T00:34:18;1.00;1.00
14401;DHT22;7285;50.894;5.462;2023-03-03T00:36:46;1.00;99.90
14401;DHT22;7285;50.894;5.462;2023-03-03T00:39:25;1.00;99.90
14401;DHT22;7285;50.894;5.462;2023-03-03T00:41:52;0.90;99.90
14401;DHT22;7285;50.894;5.462;2023-03-03T00:44:38;0.90;1.00
14401;DHT22;7285;50.894;5.462;2023-03-03T00:47:24;0.90;1.00
14401;DHT22;7285;50.894;5.462;2023-03-03T00:49:53;0.80;1.00
14401;DHT22;7285;50.894;5.462;2023-03-03T00:52:22;0.80;1.00
14401;DHT22;7285;50.894;5.462;2023-03-03T00:54:53;0.70;1.00
14401;DHT22;7285;50.894;5.462;2023-03-03T00:57:20;0.70;99.90
14401;DHT22;7285;50.894;5.462;2023-03-03T00:59:47;0.60;99.90
14401;DHT22;7285;50.894;5.462;2023-03-03T01:02:14;0.60;1.00
14401;DHT22;7285;50.894;5.462;2023-03-03T01:04:42;0.60;1.00
14401;DHT22;7285;50.894;5.462;2023-03-03T01:07:11;0.50;1.00
14401;DHT22;7285;50.894;5.462;2023-03-03T01:09:38;0.40;1.00
14401;DHT22;7285;50.894;5.462;2023-03-03T01:12:05;0.40;1.00
14401;DHT22;7285;50.894;5.462;2023-03-03T01:14:32;0.40;1.00
14401;DHT22;7285;50.894;5.462;2023-03-03T01:16:59;0.40;99.90
14401;DHT22;7285;50.894;5.462;2023-03-03T01:19:26;0.40;99.90
14401;DHT22;7285;50.894;5.462;2023-03-03T01:21:53;0.40;1.00
14401;DHT22;7285;50.894;5.462;2023-03-03T01:24:22;0.40;18.50
14401;DHT22;7285;50.894;5.462;2023-03-03T01:26:49;0.50;99.90
14401;DHT22;7285;50.894;5.462;2023-03-03T01:29:16;0.50;1.00
14401;DHT22;7285;50.894;5.462;2023-03-03T01:31:43;0.60;1.00
14401;DHT22;7285;50.894;5.462;2023-03-03T01:34:10;0.70;1.00
14401;DHT22;7285;50.894;5.462;2023-03-03T01:36:37;0.70;1.00
14401;DHT22;7285;50.894;5.462;2023-03-03T01:39:03;0.80;1.00
14401;DHT22;7285;50.894;5.462;2023-03-03T01:41:32;0.80;1.00
14401;DHT22;7285;50.894;5.462;2023-03-03T01:43:59;0.80;1.00
14401;DHT22;7285;50.894;5.462;2023-03-03T01:46:45;0.90;1.00
14401;DHT22;7285;50.894;5.462;2023-03-03T01:49:16;0.90;1.00
14401;DHT22;7285;50.894;5.462;2023-03-03T01:51:49;1.00;1.00
14401;DHT22;7285;50.894;5.462;2023-03-03T01:54:22;1.00;1.00
14401;DHT22;7285;50.894;5.462;2023-03-03T01:56:53;1.00;1.00
14401;DHT22;7285;50.894;5.462;2023-03-03T01:59:24;1.00;1.00
14401;DHT22;7285;50.894;5.462;2023-03-03T02:01:52;1.10;1.00
14401;DHT22;7285;50.894;5.462;2023-03-03T02:04:20;1.10;99.90
14401;DHT22;7285;50.894;5.462;2023-03-03T02:06:50;1.00;99.90
14401;DHT22;7285;50.894;5.462;2023-03-03T02:09:23;1.10;13.50
14401;DHT22;7285;50.894;5.462;2023-03-03T02:11:57;1.00;1.00
14401;DHT22;7285;50.894;5.462;2023-03-03T02:14:25;1.10;1.00
14401;DHT22;7285;50.894;5.462;2023-03-03T02:16:52;1.00;1.00
14401;DHT22;7285;50.894;5.462;2023-03-03T02:19:23;1.00;1.00
14401;DHT22;7285;50.894;5.462;2023-03-03T02:21:52;1.00;99.90
14401;DHT22;7285;50.894;5.462;2023-03-03T02:24:24;1.00;99.90
14401;DHT22;7285;50.894;5.462;2023-03-03T02:26:54;1.00;99.90
14401;DHT22;7285;50.894;5.462;2023-03-03T02:29:22;1.00;99.90
14401;DHT22;7285;50.894;5.462;2023-03-03T02:31:48;1.00;99.90
14401;DHT22;7285;50.894;5.462;2023-03-03T02:34:15;1.00;99.90
14401;DHT22;7285;50.894;5.462;2023-03-03T02:36:42;1.00;99.90
14401;DHT22;7285;50.894;5.462;2023-03-03T02:39:12;1.00;99.90
14401;DHT22;7285;50.894;5.462;2023-03-03T02:41:43;1.00;28.10
14401;DHT22;7285;50.894;5.462;2023-03-03T02:44:14;1.00;1.00
14401;DHT22;7285;50.894;5.462;2023-03-03T02:46:43;1.00;1.00
14401;DHT22;7285;50.894;5.462;2023-03-03T02:49:12;1.00;1.00
14401;DHT22;7285;50.894;5.462;2023-03-03T02:51:40;0.90;1.00
14401;DHT22;7285;50.894;5.462;2023-03-03T02:54:08;0.90;1.00
14401;DHT22;7285;50.894;5.462;2023-03-03T02:56:36;0.90;1.00
14401;DHT22;7285;50.894;5.462;2023-03-03T02:59:04;0.90;1.00
14401;DHT22;7285;50.894;5.462;2023-03-03T03:01:32;0.90;1.00
14401;DHT22;7285;50.894;5.462;2023-03-03T03:04:03;0.80;99.90
14401;DHT22;7285;50.894;5.462;2023-03-03T03:06:31;0.70;99.90
14401;DHT22;7285;50.894;5.462;2023-03-03T03:08:58;0.70;99.90
14401;DHT22;7285;50.894;5.462;2023-03-03T03:11:25;0.70;1.00
14401;DHT22;7285;50.894;5.462;2023-03-03T03:13:52;0.70;1.00
14401;DHT22;7285;50.894;5.462;2023-03-03T03:16:19;0.70;1.00
14401;DHT22;7285;50.894;5.462;2023-03-03T03:18:47;0.70;1.00
14401;DHT22;7285;50.894;5.462;2023-03-03T03:21:15;0.70;1.00
14401;DHT22;7285;50.894;5.462;2023-03-03T03:23:42;0.70;1.00
14401;DHT22;7285;50.894;5.462;2023-03-03T03:26:09;0.70;1.00
14401;DHT22;7285;50.894;5.462;2023-03-03T03:28:37;0.70;1.00
14401;DHT22;7285;50.894;5.462;2023-03-03T03:31:05;0.60;1.00
14401;DHT22;7285;50.894;5.462;2023-03-03T03:33:33;0.60;1.00
14401;DHT22;7285;50.894;5.462;2023-03-03T03:36:01;0.60;1.00
14401;DHT22;7285;50.894;5.462;2023-03-03T03:38:29;0.60;1.00
14401;DHT22;7285;50.894;5.462;2023-03-03T03:40:57;0.60;1.00
14401;DHT22;7285;50.894;5.462;2023-03-03T03:43:24;0.60;1.00
14401;DHT22;7285;50.894;5.462;2023-03-03T03:45:51;0.50;1.00
14401;DHT22;7285;50.894;5.462;2023-03-03T03:48:18;0.50;99.90
14401;DHT22;7285;50.894;5.462;2023-03-03T03:50:46;0.50;1.00
14401;DHT22;7285;50.894;5.462;2023-03-03T03:53:14;0.50;99.90
14401;DHT22;7285;50.894;5.462;2023-03-03T03:55:42;0.50;99.90
14401;DHT22;7285;50.894;5.462;2023-03-03T03:58:11;0.50;99.90
14401;DHT22;7285;50.894;5.462;2023-03-03T04:00:39;0.50;99.90
14401;DHT22;7285;50.894;5.462;2023-03-03T04:03:06;0.50;99.90
14401;DHT22;7285;50.894;5.462;2023-03-03T04:05:33;0.50;99.90
14401;DHT22;7285;50.894;5.462;2023-03-03T04:08:00;0.50;99.90
14401;DHT22;7285;50.894;5.462;2023-03-03T04:10:29;0.50;78.80
14401;DHT22;7285;50.894;5.462;2023-03-03T04:12:56;0.40;87.60
14401;DHT22;7285;50.894;5.462;2023-03-03T04:15:23;0.50;1.00
14401;DHT22;7285;50.894;5.462;2023-03-03T04:17:50;0.50;1.00
14401;DHT22;7285;50.894;5.462;2023-03-03T04:20:17;0.40;1.00
14401;DHT22;7285;50.894;5.462;2023-03-03T04:22:44;0.30;1.00
14401;DHT22;7285;50.894;5.462;2023-03-03T04:25:14;0.30;99.90
14401;DHT22;7285;50.894;5.462;2023-03-03T04:27:42;0.40;99.90
14401;DHT22;7285;50.894;5.462;2023-03-03T04:30:12;0.30;99.90
14401;DHT22;7285;50.894;5.462;2023-03-03T04:32:39;0.40;99.90
14401;DHT22;7285;50.894;5.462;2023-03-03T04:35:07;0.40;99.90
14401;DHT22;7285;50.894;5.462;2023-03-03T04:37:34;0.40;99.90
14401;DHT22;7285;50.894;5.462;2023-03-03T04:40:02;0.40;99.90
14401;DHT22;7285;50.894;5.462;2023-03-03T04:42:29;0.40;69.50
14401;DHT22;7285;50.894;5.462;2023-03-03T04:44:57;0.40;82.60
14401;DHT22;7285;50.894;5.462;2023-03-03T04:47:24;0.40;99.90
14401;DHT22;7285;50.894;5.462;2023-03-03T04:49:51;0.40;72.70
14401;DHT22;7285;50.894;5.462;2023-03-03T04:52:18;0.40;59.70
14401;DHT22;7285;50.894;5.462;2023-03-03T04:54:45;0.40;6.90
14401;DHT22;7285;50.894;5.462;2023-03-03T04:57:12;0.40;45.70
14401;DHT22;7285;50.894;5.462;2023-03-03T04:59:39;0.40;1.00
14401;DHT22;7285;50.894;5.462;2023-03-03T05:02:07;0.40;1.00
14401;DHT22;7285;50.894;5.462;2023-03-03T05:04:34;0.40;1.00
14401;DHT22;7285;50.894;5.462;2023-03-03T05:07:01;0.40;1.00
14401;DHT22;7285;50.894;5.462;2023-03-03T05:09:28;0.40;1.00
14401;DHT22;7285;50.894;5.462;2023-03-03T05:11:57;0.50;40.40
14401;DHT22;7285;50.894;5.462;2023-03-03T05:14:24;0.50;11.70
14401;DHT22;7285;50.894;5.462;2023-03-03T05:16:52;0.50;1.00
14401;DHT22;7285;50.894;5.462;2023-03-03T05:19:20;0.40;1.00
14401;DHT22;7285;50.894;5.462;2023-03-03T05:21:47;0.40;1.00
14401;DHT22;7285;50.894;5.462;2023-03-03T05:24:14;0.40;17.70
14401;DHT22;7285;50.894;5.462;2023-03-03T05:26:41;0.30;99.90
14401;DHT22;7285;50.894;5.462;2023-03-03T05:29:08;0.30;99.90
14401;DHT22;7285;50.894;5.462;2023-03-03T05:31:35;0.30;99.90
14401;DHT22;7285;50.894;5.462;2023-03-03T05:34:02;0.30;99.90
14401;DHT22;7285;50.894;5.462;2023-03-03T05:36:31;0.30;1.00
14401;DHT22;7285;50.894;5.462;2023-03-03T05:44:29;0.30;1.00
14401;DHT22;7285;50.894;5.462;2023-03-03T05:46:56;0.30;1.00
14401;DHT22;7285;50.894;5.462;2023-03-03T05:49:24;0.40;1.00
14401;DHT22;7285;50.894;5.462;2023-03-03T05:51:52;0.40;1.00
14401;DHT22;7285;50.894;5.462;2023-03-03T05:54:19;0.40;1.00
14401;DHT22;7285;50.894;5.462;2023-03-03T05:56:46;0.40;99.90
14401;DHT22;7285;50.894;5.462;2023-03-03T05:59:13;0.40;99.90
14401;DHT22;7285;50.894;5.462;2023-03-03T06:01:40;0.40;99.90
14401;DHT22;7285;50.894;5.462;2023-03-03T06:04:07;0.30;99.90
14401;DHT22;7285;50.894;5.462;2023-03-03T06:06:34;0.30;99.90
14401;DHT22;7285;50.894;5.462;2023-03-03T06:09:02;0.30;99.90
14401;DHT22;7285;50.894;5.462;2023-03-03T06:11:29;0.30;99.90
14401;DHT22;7285;50.894;5.462;2023-03-03T06:13:56;0.40;99.90
14401;DHT22;7285;50.894;5.462;2023-03-03T06:16:23;0.40;99.90
14401;DHT22;7285;50.894;5.462;2023-03-03T06:18:50;0.40;99.90
14401;DHT22;7285;50.894;5.462;2023-03-03T06:21:17;0.40;99.90
14401;DHT22;7285;50.894;5.462;2023-03-03T06:23:44;0.40;99.90
14401;DHT22;7285;50.894;5.462;2023-03-03T06:26:12;0.40;99.90
14401;DHT22;7285;50.894;5.462;2023-03-03T06:28:39;0.40;65.80
14401;DHT22;7285;50.894;5.462;2023-03-03T06:31:06;0.40;76.30
14401;DHT22;7285;50.894;5.462;2023-03-03T06:33:33;0.40;1.00
14401;DHT22;7285;50.894;5.462;2023-03-03T06:36:00;0.30;1.00
14401;DHT22;7285;50.894;5.462;2023-03-03T06:38:27;0.30;1.00
14401;DHT22;7285;50.894;5.462;2023-03-03T06:40:54;0.30;1.00
14401;DHT22;7285;50.894;5.462;2023-03-03T06:43:22;0.30;1.00
14401;DHT22;7285;50.894;5.462;2023-03-03T06:45:49;0.30;1.00
14401;DHT22;7285;50.894;5.462;2023-03-03T06:48:16;0.20;1.00
14401;DHT22;7285;50.894;5.462;2023-03-03T06:50:43;0.20;1.00
14401;DHT22;7285;50.894;5.462;2023-03-03T06:53:12;0.20;1.00
14401;DHT22;7285;50.894;5.462;2023-03-03T06:55:40;0.30;1.00
14401;DHT22;7285;50.894;5.462;2023-03-03T06:58:12;0.30;1.00
14401;DHT22;7285;50.894;5.462;2023-03-03T07:00:42;0.30;45.10
14401;DHT22;7285;50.894;5.462;2023-03-03T07:03:14;0.20;99.90
14401;DHT22;7285;50.894;5.462;2023-03-03T07:05:42;0.40;99.90
14401;DHT22;7285;50.894;5.462;2023-03-03T07:08:13;0.40;99.90
14401;DHT22;7285;50.894;5.462;2023-03-03T07:10:40;0.40;93.80
14401;DHT22;7285;50.894;5.462;2023-03-03T07:13:17;0.40;43.30
14401;DHT22;7285;50.894;5.462;2023-03-03T07:15:46;0.50;30.90
14401;DHT22;7285;50.894;5.462;2023-03-03T07:18:29;0.50;1.00
14401;DHT22;7285;50.894;5.462;2023-03-03T07:20:58;0.50;1.00
14401;DHT22;7285;50.894;5.462;2023-03-03T07:23:28;0.40;1.00
14401;DHT22;7285;50.894;5.462;2023-03-03T07:25:57;0.40;1.00
14401;DHT22;7285;50.894;5.462;2023-03-03T07:28:26;0.50;1.00
14401;DHT22;7285;50.894;5.462;2023-03-03T07:30:56;0.50;99.90
14401;DHT22;7285;50.894;5.462;2023-03-03T07:33:25;0.50;99.90
14401;DHT22;7285;50.894;5.462;2023-03-03T07:35:53;0.50;99.90
14401;DHT22;7285;50.894;5.462;2023-03-03T07:38:27;0.50;99.90
14401;DHT22;7285;50.894;5.462;2023-03-03T07:40:57;0.50;16.90
14401;DHT22;7285;50.894;5.462;2023-03-03T07:46:48;0.50;99.90
14401;DHT22;7285;50.894;5.462;2023-03-03T07:49:21;0.50;99.90
14401;DHT22;7285;50.894;5.462;2023-03-03T07:51:52;0.50;99.90
14401;DHT22;7285;50.894;5.462;2023-03-03T07:54:37;0.50;99.90
14401;DHT22;7285;50.894;5.462;2023-03-03T07:57:14;0.50;99.90
14401;DHT22;7285;50.894;5.462;2023-03-03T07:59:47;0.50;99.90
14401;DHT22;7285;50.894;5.462;2023-03-03T08:02:32;0.40;99.90
14401;DHT22;7285;50.894;5.462;2023-03-03T08:05:00;0.40;99.90
14401;DHT22;7285;50.894;5.462;2023-03-03T08:07:30;0.40;99.90
14401;DHT22;7285;50.894;5.462;2023-03-03T08:09:59;0.50;99.90
14401;DHT22;7285;50.894;5.462;2023-03-03T08:12:38;0.50;99.90
14401;DHT22;7285;50.894;5.462;2023-03-03T08:15:19;0.50;99.90
14401;DHT22;7285;50.894;5.462;2023-03-03T08:17:49;0.50;9.00
14401;DHT22;7285;50.894;5.462;2023-03-03T08:20:51;0.50;1.00
14401;DHT22;7285;50.894;5.462;2023-03-03T08:23:19;0.50;1.00
14401;DHT22;7285;50.894;5.462;2023-03-03T08:25:47;0.60;1.00
14401;DHT22;7285;50.894;5.462;2023-03-03T08:28:14;0.60;1.00
14401;DHT22;7285;50.894;5.462;2023-03-03T08:30:42;0.70;1.00
14401;DHT22;7285;50.894;5.462;2023-03-03T08:33:11;0.70;99.90
14401;DHT22;7285;50.894;5.462;2023-03-03T08:35:38;0.70;99.90
14401;DHT22;7285;50.894;5.462;2023-03-03T08:38:06;0.80;69.70
14401;DHT22;7285;50.894;5.462;2023-03-03T08:40:33;0.80;1.00
14401;DHT22;7285;50.894;5.462;2023-03-03T08:43:00;0.80;1.00
14401;DHT22;7285;50.894;5.462;2023-03-03T08:45:28;0.80;1.00
14401;DHT22;7285;50.894;5.462;2023-03-03T08:47:55;0.80;1.00
14401;DHT22;7285;50.894;5.462;2023-03-03T08:50:26;0.80;1.00
14401;DHT22;7285;50.894;5.462;2023-03-03T08:52:53;0.80;99.90
14401;DHT22;7285;50.894;5.462;2023-03-03T08:55:20;0.90;99.90
14401;DHT22;7285;50.894;5.462;2023-03-03T08:57:47;0.90;99.90
14401;DHT22;7285;50.894;5.462;2023-03-03T09:00:16;0.90;99.90
14401;DHT22;7285;50.894;5.462;2023-03-03T09:02:43;1.00;99.90
14401;DHT22;7285;50.894;5.462;2023-03-03T09:05:11;1.00;99.90
14401;DHT22;7285;50.894;5.462;2023-03-03T09:07:40;1.10;1.00
14401;DHT22;7285;50.894;5.462;2023-03-03T09:10:08;1.00;1.00
14401;DHT22;7285;50.894;5.462;2023-03-03T09:12:37;1.00;1.00
14401;DHT22;7285;50.894;5.462;2023-03-03T09:15:18;1.00;1.00
14401;DHT22;7285;50.894;5.462;2023-03-03T09:17:46;1.10;1.00
14401;DHT22;7285;50.894;5.462;2023-03-03T09:20:31;1.20;1.00
14401;DHT22;7285;50.894;5.462;2023-03-03T09:23:21;1.20;99.90
14401;DHT22;7285;50.894;5.462;2023-03-03T09:25:50;1.20;99.90
14401;DHT22;7285;50.894;5.462;2023-03-03T09:28:22;1.20;99.90
14401;DHT22;7285;50.894;5.462;2023-03-03T09:30:51;1.30;99.90
14401;DHT22;7285;50.894;5.462;2023-03-03T09:33:25;1.30;99.90
14401;DHT22;7285;50.894;5.462;2023-03-03T09:35:55;1.40;48.60
14401;DHT22;7285;50.894;5.462;2023-03-03T09:38:30;1.40;1.00
14401;DHT22;7285;50.894;5.462;2023-03-03T09:44:18;1.50;1.00
14401;DHT22;7285;50.894;5.462;2023-03-03T09:47:01;1.40;1.00
14401;DHT22;7285;50.894;5.462;2023-03-03T09:49:33;1.50;1.00
14401;DHT22;7285;50.894;5.462;2023-03-03T09:52:11;1.60;1.00
14401;DHT22;7285;50.894;5.462;2023-03-03T09:55:01;1.60;99.90
14401;DHT22;7285;50.894;5.462;2023-03-03T09:57:43;1.60;99.90
14401;DHT22;7285;50.894;5.462;2023-03-03T10:00:22;1.60;99.90
14401;DHT22;7285;50.894;5.462;2023-03-03T10:05:50;1.70;17.80
14401;DHT22;7285;50.894;5.462;2023-03-03T10:08:31;1.80;24.30
14401;DHT22;7285;50.894;5.462;2023-03-03T10:11:12;1.80;1.00
14401;DHT22;7285;50.894;5.462;2023-03-03T10:13:56;2.00;1.00
14401;DHT22;7285;50.894;5.462;2023-03-03T10:16:55;1.90;1.00
14401;DHT22;7285;50.894;5.462;2023-03-03T10:19:37;2.10;1.00
14401;DHT22;7285;50.894;5.462;2023-03-03T10:22:17;2.10;1.00
14401;DHT22;7285;50.894;5.462;2023-03-03T10:24:57;2.20;1.00
14401;DHT22;7285;50.894;5.462;2023-03-03T10:27:52;2.20;1.00
14401;DHT22;7285;50.894;5.462;2023-03-03T10:30:30;2.30;1.00
14401;DHT22;7285;50.894;5.462;2023-03-03T10:33:01;2.20;1.00
14401;DHT22;7285;50.894;5.462;2023-03-03T10:35:40;2.10;1.00
14401;DHT22;7285;50.894;5.462;2023-03-03T10:38:20;2.20;1.00
14401;DHT22;7285;50.894;5.462;2023-03-03T10:40:53;2.30;1.00
14401;DHT22;7285;50.894;5.462;2023-03-03T10:43:34;2.40;1.00
14401;DHT22;7285;50.894;5.462;2023-03-03T10:46:22;2.50;99.90
14401;DHT22;7285;50.894;5.462;2023-03-03T10:49:02;2.50;99.90
14401;DHT22;7285;50.894;5.462;2023-03-03T10:51:43;2.50;99.90
14401;DHT22;7285;50.894;5.462;2023-03-03T10:54:29;2.60;99.90
14401;DHT22;7285;50.894;5.462;2023-03-03T10:57:02;2.70;99.90
14401;DHT22;7285;50.894;5.462;2023-03-03T10:59:46;2.70;99.90
14401;DHT22;7285;50.894;5.462;2023-03-03T11:02:21;2.60;48.90
14401;DHT22;7285;50.894;5.462;2023-03-03T11:04:58;2.70;99.90
14401;DHT22;7285;50.894;5.462;2023-03-03T11:07:34;2.70;99.80
14401;DHT22;7285;50.894;5.462;2023-03-03T11:10:17;2.80;63.30
14401;DHT22;7285;50.894;5.462;2023-03-03T11:12:53;2.80;1.00
14401;DHT22;7285;50.894;5.462;2023-03-03T11:15:36;2.90;1.00
14401;DHT22;7285;50.894;5.462;2023-03-03T11:18:16;3.00;1.00
14401;DHT22;7285;50.894;5.462;2023-03-03T11:20:51;2.90;1.00
14401;DHT22;7285;50.894;5.462;2023-03-03T11:23:45;2.90;1.00
14401;DHT22;7285;50.894;5.462;2023-03-03T11:26:24;3.00;1.00
14401;DHT22;7285;50.894;5.462;2023-03-03T11:29:18;3.10;1.00
14401;DHT22;7285;50.894;5.462;2023-03-03T11:31:52;3.20;1.00
14401;DHT22;7285;50.894;5.462;2023-03-03T11:34:36;3.30;1.00
14401;DHT22;7285;50.894;5.462;2023-03-03T11:37:08;3.50;1.00
14401;DHT22;7285;50.894;5.462;2023-03-03T11:39:37;3.40;1.00
14401;DHT22;7285;50.894;5.462;2023-03-03T11:42:14;3.60;1.00
14401;DHT22;7285;50.894;5.462;2023-03-03T11:44:45;3.60;1.00
14401;DHT22;7285;50.894;5.462;2023-03-03T11:47:19;3.50;1.00
14401;DHT22;7285;50.894;5.462;2023-03-03T11:49:51;3.60;1.00
14401;DHT22;7285;50.894;5.462;2023-03-03T11:52:26;3.60;1.00
14401;DHT22;7285;50.894;5.462;2023-03-03T11:55:01;3.60;1.00
14401;DHT22;7285;50.894;5.462;2023-03-03T11:57:35;3.70;1.00
14401;DHT22;7285;50.894;5.462;2023-03-03T12:00:18;3.70;1.00
14401;DHT22;7285;50.894;5.462;2023-03-03T12:03:16;3.70;1.00
14401;DHT22;7285;50.894;5.462;2023-03-03T12:05:53;3.90;1.00
14401;DHT22;7285;50.894;5.462;2023-03-03T12:08:37;4.10;1.00
14401;DHT22;7285;50.894;5.462;2023-03-03T12:11:12;3.80;1.00
14401;DHT22;7285;50.894;5.462;2023-03-03T12:13:52;3.90;1.00
14401;DHT22;7285;50.894;5.462;2023-03-03T12:16:28;4.10;1.00
14401;DHT22;7285;50.894;5.462;2023-03-03T12:19:12;4.20;1.00
14401;DHT22;7285;50.894;5.462;2023-03-03T12:21:57;4.20;99.90
14401;DHT22;7285;50.894;5.462;2023-03-03T12:24:45;4.20;99.90
14401;DHT22;7285;50.894;5.462;2023-03-03T12:27:20;4.30;99.90
14401;DHT22;7285;50.894;5.462;2023-03-03T12:29:54;4.30;99.90
14401;DHT22;7285;50.894;5.462;2023-03-03T12:32:31;4.40;99.90
14401;DHT22;7285;50.894;5.462;2023-03-03T12:35:06;4.50;99.90
14401;DHT22;7285;50.894;5.462;2023-03-03T12:37:49;4.50;99.90
14401;DHT22;7285;50.894;5.462;2023-03-03T12:40:24;4.60;99.90
14401;DHT22;7285;50.894;5.462;2023-03-03T12:43:06;4.60;99.90
14401;DHT22;7285;50.894;5.462;2023-03-03T12:45:46;4.60;99.90
14401;DHT22;7285;50.894;5.462;2023-03-03T12:48:16;4.60;99.90
14401;DHT22;7285;50.894;5.462;2023-03-03T12:50:54;4.70;99.90
14401;DHT22;7285;50.894;5.462;2023-03-03T12:53:33;4.80;99.90
14401;DHT22;7285;50.894;5.462;2023-03-03T12:56:05;4.60;99.90
14401;DHT22;7285;50.894;5.462;2023-03-03T12:58:41;4.60;99.90
14401;DHT22;7285;50.894;5.462;2023-03-03T13:01:30;4.80;99.90
14401;DHT22;7285;50.894;5.462;2023-03-03T13:04:05;5.10;99.90
14401;DHT22;7285;50.894;5.462;2023-03-03T13:06:40;5.20;99.90
14401;DHT22;7285;50.894;5.462;2023-03-03T13:09:19;5.30;99.90
14401;DHT22;7285;50.894;5.462;2023-03-03T13:12:09;5.20;99.90
14401;DHT22;7285;50.894;5.462;2023-03-03T13:14:44;5.40;99.90
14401;DHT22;7285;50.894;5.462;2023-03-03T13:17:20;5.20;99.90
14401;DHT22;7285;50.894;5.462;2023-03-03T13:19:51;5.50;99.90
14401;DHT22;7285;50.894;5.462;2023-03-03T13:22:32;5.80;99.90
14401;DHT22;7285;50.894;5.462;2023-03-03T13:25:03;6.10;96.40
14401;DHT22;7285;50.894;5.462;2023-03-03T13:27:36;6.10;79.90
14401;DHT22;7285;50.894;5.462;2023-03-03T13:30:14;6.20;69.80
14401;DHT22;7285;50.894;5.462;2023-03-03T13:32:45;6.60;34.80
14401;DHT22;7285;50.894;5.462;2023-03-03T13:35:21;7.20;23.80
14401;DHT22;7285;50.894;5.462;2023-03-03T13:37:55;6.90;1.00
14401;DHT22;7285;50.894;5.462;2023-03-03T13:40:24;7.00;1.00
14401;DHT22;7285;50.894;5.462;2023-03-03T13:42:55;7.40;1.00
14401;DHT22;7285;50.894;5.462;2023-03-03T13:45:27;7.50;1.00
14401;DHT22;7285;50.894;5.462;2023-03-03T13:48:02;7.40;1.00
14401;DHT22;7285;50.894;5.462;2023-03-03T13:50:37;7.00;1.00
14401;DHT22;7285;50.894;5.462;2023-03-03T13:53:33;6.90;1.00
14401;DHT22;7285;50.894;5.462;2023-03-03T13:56:17;6.90;1.00
14401;DHT22;7285;50.894;5.462;2023-03-03T13:58:53;6.80;1.00
14401;DHT22;7285;50.894;5.462;2023-03-03T14:01:29;6.60;1.00
14401;DHT22;7285;50.894;5.462;2023-03-03T14:04:05;6.20;1.00
14401;DHT22;7285;50.894;5.462;2023-03-03T14:06:35;6.20;1.00
14401;DHT22;7285;50.894;5.462;2023-03-03T14:09:16;6.20;1.00
14401;DHT22;7285;50.894;5.462;2023-03-03T14:11:52;6.30;1.00
14401;DHT22;7285;50.894;5.462;2023-03-03T14:14:32;6.70;1.00
14401;DHT22;7285;50.894;5.462;2023-03-03T14:17:08;7.60;1.00
14401;DHT22;7285;50.894;5.462;2023-03-03T14:19:43;6.90;1.00
14401;DHT22;7285;50.894;5.462;2023-03-03T14:22:16;6.70;1.00
14401;DHT22;7285;50.894;5.462;2023-03-03T14:25:04;6.80;1.00
14401;DHT22;7285;50.894;5.462;2023-03-03T14:27:37;7.30;1.00
14401;DHT22;7285;50.894;5.462;2023-03-03T14:30:29;8.30;1.00
14401;DHT22;7285;50.894;5.462;2023-03-03T14:33:02;9.10;1.00
14401;DHT22;7285;50.894;5.462;2023-03-03T14:35:33;9.30;1.00
14401;DHT22;7285;50.894;5.462;2023-03-03T14:38:02;9.80;1.00
14401;DHT22;7285;50.894;5.462;2023-03-03T14:40:32;9.30;1.00
14401;DHT22;7285;50.894;5.462;2023-03-03T14:43:00;9.10;1.00
14401;DHT22;7285;50.894;5.462;2023-03-03T14:45:33;9.50;1.00
14401;DHT22;7285;50.894;5.462;2023-03-03T14:48:10;9.70;1.00
14401;DHT22;7285;50.894;5.462;2023-03-03T14:50:42;9.60;1.00
14401;DHT22;7285;50.894;5.462;2023-03-03T14:53:15;10.10;1.00
14401;DHT22;7285;50.894;5.462;2023-03-03T14:55:49;10.20;1.00
14401;DHT22;7285;50.894;5.462;2023-03-03T14:58:28;10.10;1.00
14401;DHT22;7285;50.894;5.462;2023-03-03T15:01:13;9.50;1.00
14401;DHT22;7285;50.894;5.462;2023-03-03T15:03:46;10.10;1.00
14401;DHT22;7285;50.894;5.462;2023-03-03T15:06:28;10.00;1.00
14401;DHT22;7285;50.894;5.462;2023-03-03T15:08:56;9.60;1.00
14401;DHT22;7285;50.894;5.462;2023-03-03T15:11:44;10.20;1.00
14401;DHT22;7285;50.894;5.462;2023-03-03T15:14:15;10.20;1.00
14401;DHT22;7285;50.894;5.462;2023-03-03T15:16:42;10.20;1.00
14401;DHT22;7285;50.894;5.462;2023-03-03T15:19:36;9.90;1.00
14401;DHT22;7285;50.894;5.462;2023-03-03T15:22:18;10.20;1.00
14401;DHT22;7285;50.894;5.462;2023-03-03T15:24:53;10.10;1.00
14401;DHT22;7285;50.894;5.462;2023-03-03T15:27:27;10.20;1.00
14401;DHT22;7285;50.894;5.462;2023-03-03T15:30:03;10.90;1.00
14401;DHT22;7285;50.894;5.462;2023-03-03T15:32:42;11.40;1.00
14401;DHT22;7285;50.894;5.462;2023-03-03T15:35:22;10.70;1.00
14401;DHT22;7285;50.894;5.462;2023-03-03T15:37:57;9.80;1.00
14401;DHT22;7285;50.894;5.462;2023-03-03T15:40:27;9.70;1.00
14401;DHT22;7285;50.894;5.462;2023-03-03T15:43:04;9.90;1.00
14401;DHT22;7285;50.894;5.462;2023-03-03T15:45:40;10.10;1.00
14401;DHT22;7285;50.894;5.462;2023-03-03T15:48:20;10.40;1.00
14401;DHT22;7285;50.894;5.462;2023-03-03T15:50:56;10.50;1.00
14401;DHT22;7285;50.894;5.462;2023-03-03T15:53:48;10.20;1.00
14401;DHT22;7285;50.894;5.462;2023-03-03T15:56:27;10.50;1.00
14401;DHT22;7285;50.894;5.462;2023-03-03T16:02:12;10.60;1.00
14401;DHT22;7285;50.894;5.462;2023-03-03T16:04:47;10.10;1.00
14401;DHT22;7285;50.894;5.462;2023-03-03T16:07:29;9.40;1.00
14401;DHT22;7285;50.894;5.462;2023-03-03T16:10:07;9.00;1.00
14401;DHT22;7285;50.894;5.462;2023-03-03T16:12:46;8.60;1.00
14401;DHT22;7285;50.894;5.462;2023-03-03T16:15:33;8.20;1.00
14401;DHT22;7285;50.894;5.462;2023-03-03T16:18:06;7.80;1.00
14401;DHT22;7285;50.894;5.462;2023-03-03T16:20:39;7.60;1.00
14401;DHT22;7285;50.894;5.462;2023-03-03T16:23:19;7.50;1.00
14401;DHT22;7285;50.894;5.462;2023-03-03T16:26:01;7.30;1.00
14401;DHT22;7285;50.894;5.462;2023-03-03T16:28:38;7.00;1.00
14401;DHT22;7285;50.894;5.462;2023-03-03T16:31:11;6.80;1.00
14401;DHT22;7285;50.894;5.462;2023-03-03T16:33:45;6.60;1.00
14401;DHT22;7285;50.894;5.462;2023-03-03T16:36:23;6.50;1.00
14401;DHT22;7285;50.894;5.462;2023-03-03T16:38:57;6.30;1.00
14401;DHT22;7285;50.894;5.462;2023-03-03T16:41:36;6.00;1.00
14401;DHT22;7285;50.894;5.462;2023-03-03T16:44:14;5.70;1.00
14401;DHT22;7285;50.894;5.462;2023-03-03T16:46:49;5.40;1.00
14401;DHT22;7285;50.894;5.462;2023-03-03T16:49:20;5.30;1.00
14401;DHT22;7285;50.894;5.462;2023-03-03T16:51:53;5.20;1.00
14401;DHT22;7285;50.894;5.462;2023-03-03T16:54:32;5.00;1.00
14401;DHT22;7285;50.894;5.462;2023-03-03T16:57:08;4.80;1.00
14401;DHT22;7285;50.894;5.462;2023-03-03T16:59:53;4.70;1.00
14401;DHT22;7285;50.894;5.462;2023-03-03T17:02:39;4.50;1.00
14401;DHT22;7285;50.894;5.462;2023-03-03T17:05:16;4.30;1.00